Time;durP1;ratioP1;P1;durP2;ratioP2;P2;SDS_P1;SDS_P2;PMS_P1;PMS_P2;Temp;Humidity;BMP_temperature;BMP_pressure;BME280_temperature;BME280_humidity;BME280_pressure;Samples;Min_cycle;Max_cycle;Signal;HPM_P1;HPM_P2
2023/11/13 00:03:38;;;;;;;28.30;15.30;;;;;;;3.40;100.00;98550.89;274035;1271;23380;-83
2023/11/13 00:10:00;;;;;;;34.10;16.40;;;;;;;3.47;100.00;98556.05;273805;1274;22251;-83
2023/11/13 00:16:45;;;;;;;33.60;17.70;;;;;;;3.48;100.00;98555.23;273926;1269;22239;-83
2023/11/13 00:23:28;;;;;;;38.20;20.00;;;;;;;3.49;100.00;98558.67;273951;1269;22987;-83
2023/11/13 00:29:32;;;;;;;31.60;19.40;;;;;;;3.56;100.00;98557.52;274032;1269;23220;-83
2023/11/13 00:36:11;;;;;;;35.10;19.80;;;;;;;3.63;100.00;98563.73;273729;1272;22192;-83
2023/11/13 00:42:15;;;;;;;37.80;21.30;;;;;;;3.64;100.00;98567.95;273326;1267;22422;-83
2023/11/13 00:48:40;;;;;;;36.40;21.70;;;;;;;3.66;100.00;98570.66;273980;1269;22177;-83
2023/11/13 00:54:42;;;;;;;42.00;23.50;;;;;;;3.69;100.00;98576.61;273549;1267;22546;-83
2023/11/13 01:01:37;;;;;;;37.40;22.30;;;;;;;3.71;100.00;98579.96;273629;1269;22177;-83
2023/11/13 01:08:30;;;;;;;50.40;25.70;;;;;;;3.76;100.00;98582.64;273674;1275;22196;-83
2023/11/13 01:15:17;;;;;;;50.40;27.00;;;;;;;3.77;100.00;98588.48;273614;1266;22864;-83
2023/11/13 01:21:54;;;;;;;44.70;23.80;;;;;;;3.79;100.00;98595.06;273353;1267;22358;-83
2023/11/13 01:28:18;;;;;;;46.60;24.60;;;;;;;3.81;100.00;98592.48;274084;1275;22203;-83
2023/11/13 01:34:36;;;;;;;39.10;22.00;;;;;;;3.82;100.00;98596.63;273890;1269;22188;-83
2023/11/13 01:41:05;;;;;;;38.60;20.50;;;;;;;3.83;100.00;98595.65;273889;1269;22366;-83
2023/11/13 01:47:29;;;;;;;28.30;16.80;;;;;;;3.83;100.00;98593.07;273915;1270;23270;-83
2023/11/13 01:53:59;;;;;;;36.20;17.80;;;;;;;3.83;100.00;98591.14;273793;1269;22363;-83
2023/11/13 02:00:01;;;;;;;29.40;16.30;;;;;;;3.81;100.00;98593.80;272501;1267;22472;-83
2023/11/13 02:06:06;;;;;;;20.20;12.80;;;;;;;3.82;100.00;98590.35;272366;1267;22218;-83
2023/11/13 02:12:44;;;;;;;20.40;12.00;;;;;;;3.92;100.00;98578.27;273635;1269;22189;-83
2023/11/13 02:18:46;;;;;;;;;;;;;;;3.98;100.00;98580.46;273067;1267;22533;-83
2023/11/13 02:24:48;;;;;;;8.40;4.60;;;;;;;4.07;100.00;98582.99;271143;1267;25471;-83
2023/11/13 02:37:35;;;;;;;5.10;3.50;;;;;;;4.34;100.00;98579.60;271975;1269;22410;-79
2023/11/13 02:43:57;;;;;;;6.30;3.70;;;;;;;4.46;100.00;98589.55;272916;1270;23667;-79
2023/11/13 02:50:02;;;;;;;5.20;3.20;;;;;;;4.48;100.00;98589.92;273298;1267;135538;-80
2023/11/13 02:56:04;;;;;;;6.40;3.40;;;;;;;4.53;100.00;98594.02;273162;1269;22312;-81
2023/11/13 03:02:07;;;;;;;5.60;3.40;;;;;;;4.60;100.00;98598.45;273196;1271;22223;-79
2023/11/13 03:08:10;;;;;;;5.50;3.20;;;;;;;4.64;100.00;98605.33;273603;1277;22228;-79
2023/11/13 03:14:32;;;;;;;6.50;3.20;;;;;;;4.68;100.00;98600.63;273454;1273;22171;-79
2023/11/13 03:20:37;;;;;;;6.90;3.40;;;;;;;4.72;100.00;98602.14;272921;1270;23031;-81
2023/11/13 03:26:39;;;;;;;5.40;3.20;;;;;;;4.75;100.00;98597.88;273405;1269;22300;-81
2023/11/13 03:32:42;;;;;;;6.60;3.30;;;;;;;4.79;100.00;98600.08;273021;1270;23521;-81
2023/11/13 03:38:47;;;;;;;5.60;3.20;;;;;;;4.82;100.00;98598.29;272824;1269;22357;-81
2023/11/13 03:44:52;;;;;;;7.10;3.00;;;;;;;4.80;100.00;98594.53;273074;1269;22406;-81
2023/11/13 03:50:54;;;;;;;4.40;3.10;;;;;;;4.77;100.00;98589.64;273545;1273;22378;-81
2023/11/13 03:57:36;;;;;;;5.60;2.90;;;;;;;4.80;100.00;98586.63;273470;1269;23442;-81
2023/11/13 04:03:42;;;;;;;4.10;2.50;;;;;;;4.88;100.00;98583.59;273165;1269;22296;-83
2023/11/13 04:09:49;;;;;;;3.60;2.10;;;;;;;4.92;100.00;98583.15;273156;1269;22414;-82
2023/11/13 04:15:53;;;;;;;5.80;2.70;;;;;;;4.96;100.00;98581.16;272891;1269;22398;-81
2023/11/13 04:21:55;;;;;;;7.80;3.20;;;;;;;4.97;100.00;98579.94;273117;1270;24267;-81
2023/11/13 04:28:19;;;;;;;5.90;2.90;;;;;;;4.95;100.00;98570.45;273385;1274;22335;-81
2023/11/13 04:34:21;;;;;;;4.70;2.70;;;;;;;4.92;100.00;98566.66;273065;1270;22348;-81
2023/11/13 04:41:04;;;;;;;7.00;3.00;;;;;;;4.83;100.00;98577.02;272955;1269;22183;-81
2023/11/13 04:47:08;;;;;;;8.40;4.30;;;;;;;4.65;100.00;98585.75;273021;1269;22200;-80
2023/11/13 04:53:19;;;;;;;11.60;5.20;;;;;;;4.50;100.00;98583.16;273313;1269;22187;-81
2023/11/13 04:59:20;;;;;;;6.90;3.30;;;;;;;4.37;100.00;98583.86;273431;1269;23396;-80
2023/11/13 05:05:25;;;;;;;6.00;3.70;;;;;;;4.17;100.00;98594.58;273215;1269;22186;-81
2023/11/13 05:12:15;;;;;;;6.50;2.90;;;;;;;4.08;100.00;98596.94;273025;1269;23040;-81
2023/11/13 05:18:18;;;;;;;5.40;3.60;;;;;;;4.00;100.00;98608.92;273166;1269;22404;-81
2023/11/13 05:25:03;;;;;;;6.70;3.40;;;;;;;4.00;100.00;98625.34;273063;1269;23019;-81
2023/11/13 05:31:21;;;;;;;5.70;3.50;;;;;;;4.02;100.00;98633.36;273581;1269;22308;-81
2023/11/13 05:37:24;;;;;;;6.80;4.00;;;;;;;4.03;100.00;98629.52;273356;1269;22378;-80
2023/11/13 05:43:25;;;;;;;8.30;3.60;;;;;;;4.05;100.00;98628.11;273703;1269;22200;-81
2023/11/13 05:49:44;;;;;;;5.30;3.30;;;;;;;4.10;100.00;98629.89;273249;1274;23014;-81
2023/11/13 05:55:47;;;;;;;5.90;3.00;;;;;;;4.11;100.00;98633.73;272967;1269;22807;-82
2023/11/13 06:01:49;;;;;;;6.10;2.90;;;;;;;4.16;100.00;98637.36;272992;1269;22401;-80
2023/11/13 06:07:54;;;;;;;6.00;3.40;;;;;;;4.24;100.00;98643.42;273449;1269;23692;-81
2023/11/13 06:13:56;;;;;;;4.80;2.60;;;;;;;4.28;100.00;98647.93;272814;1269;23692;-82
2023/11/13 06:19:58;;;;;;;4.00;3.00;;;;;;;4.34;100.00;98656.86;272954;1262;22249;-81
2023/11/13 06:26:05;;;;;;;5.10;2.50;;;;;;;4.41;100.00;98658.73;272973;1269;22855;-81
2023/11/13 06:32:07;;;;;;;7.60;3.10;;;;;;;4.49;100.00;98652.77;272984;1269;22188;-81
2023/11/13 06:38:09;;;;;;;5.80;3.30;;;;;;;4.58;100.00;98651.31;273044;1269;23483;-81
2023/11/13 06:44:11;;;;;;;8.20;4.10;;;;;;;4.66;100.00;98652.17;273111;1270;23667;-81
2023/11/13 06:50:14;;;;;;;6.00;3.90;;;;;;;4.73;100.00;98649.88;272703;1269;22223;-82
2023/11/13 06:56:36;;;;;;;17.70;8.30;;;;;;;4.82;100.00;98656.11;272619;1269;22469;-82
2023/11/13 07:02:43;;;;;;;19.60;9.50;;;;;;;4.93;100.00;98661.83;272661;1269;22409;-82
2023/11/13 07:08:47;;;;;;;31.10;14.30;;;;;;;5.02;100.00;98660.54;272997;1269;22364;-81
2023/11/13 07:14:51;;;;;;;9.60;5.40;;;;;;;5.14;100.00;98659.77;272948;1269;22224;-81
2023/11/13 07:21:31;;;;;;;12.50;4.00;;;;;;;5.24;100.00;98652.36;272970;1269;22397;-81
2023/11/13 07:27:33;;;;;;;6.00;3.70;;;;;;;5.36;100.00;98654.65;272966;1269;22331;-81
2023/11/13 07:33:36;;;;;;;7.00;3.10;;;;;;;5.49;100.00;98648.39;273636;1270;22258;-81
2023/11/13 07:39:39;;;;;;;6.30;3.10;;;;;;;5.66;100.00;98646.09;273482;1262;22227;-79
2023/11/13 07:46:21;;;;;;;5.60;2.90;;;;;;;5.83;100.00;98649.64;273137;1269;22188;-79
2023/11/13 07:52:24;;;;;;;8.60;4.00;;;;;;;6.02;100.00;98668.66;273000;1269;22238;-83
2023/11/13 07:58:44;;;;;;;12.80;6.40;;;;;;;6.12;100.00;98685.13;273024;1269;22192;-81
2023/11/13 08:04:46;;;;;;;9.30;5.30;;;;;;;6.13;100.00;98697.71;272945;1269;22384;-81
2023/11/13 08:10:48;;;;;;;12.20;6.50;;;;;;;6.11;100.00;98711.39;272870;1269;22264;-80
2023/11/13 08:16:50;;;;;;;11.20;5.90;;;;;;;6.16;100.00;98711.31;272869;1259;23027;-80
2023/11/13 08:22:57;;;;;;;10.80;6.10;;;;;;;6.27;100.00;98718.15;272858;1269;22393;-81
2023/11/13 08:29:03;;;;;;;13.20;7.00;;;;;;;6.33;100.00;98717.70;272728;1269;22234;-81
2023/11/13 08:35:05;;;;;;;15.70;7.20;;;;;;;6.37;100.00;98708.39;272612;1254;22267;-81
2023/11/13 08:41:07;;;;;;;15.00;7.10;;;;;;;6.43;100.00;98708.43;272969;1269;22204;-80
2023/11/13 08:47:10;;;;;;;14.20;7.20;;;;;;;6.51;100.00;98706.42;273490;1269;23066;-80
2023/11/13 08:53:17;;;;;;;10.90;7.00;;;;;;;6.61;100.00;98695.55;273195;1269;22199;-80
2023/11/13 08:59:35;;;;;;;13.90;7.50;;;;;;;6.84;100.00;98690.59;273265;1269;22316;-81
2023/11/13 09:05:37;;;;;;;14.30;7.50;;;;;;;7.08;100.00;98687.99;273136;1269;22453;-81
2023/11/13 09:11:41;;;;;;;9.90;6.40;;;;;;;7.43;100.00;98682.67;273098;1264;22401;-81
2023/11/13 09:18:26;;;;;;;11.60;6.90;;;;;;;8.36;100.00;98678.20;273320;1269;22226;-80
2023/11/13 09:24:32;;;;;;;13.70;6.60;;;;;;;9.47;100.00;98669.55;272649;1269;22458;-82
2023/11/13 09:30:35;;;;;;;12.20;6.30;;;;;;;10.31;100.00;98654.66;273509;1271;22360;-81
2023/11/13 09:36:40;;;;;;;11.50;6.10;;;;;;;11.40;100.00;98653.36;272767;1269;22397;-81
2023/11/13 09:43:14;;;;;;;12.10;5.20;;;;;;;12.26;99.92;98654.40;273424;1269;22181;-81
2023/11/13 09:49:39;;;;;;;9.30;5.30;;;;;;;12.08;99.68;98654.42;272624;1269;23025;-80
2023/11/13 09:55:42;;;;;;;8.30;5.90;;;;;;;11.41;97.54;98653.85;272868;1269;22303;-78
2023/11/13 10:01:44;;;;;;;10.40;6.10;;;;;;;10.97;96.32;98645.73;273279;1267;23680;-79
2023/11/13 10:07:54;;;;;;;11.70;6.30;;;;;;;10.31;95.88;98639.90;273258;1269;22323;-79
2023/11/13 10:14:12;;;;;;;12.50;6.60;;;;;;;9.91;96.55;98639.36;272971;1269;22501;-79
2023/11/13 10:20:17;;;;;;;11.20;6.40;;;;;;;9.76;96.68;98632.36;273581;1272;22217;-80
2023/11/13 10:26:26;;;;;;;9.90;5.30;;;;;;;9.47;95.87;98631.88;273228;1269;22199;-79
2023/11/13 10:32:32;;;;;;;9.40;5.00;;;;;;;9.18;95.94;98633.45;272942;1269;22454;-81
2023/11/13 10:39:11;;;;;;;11.30;5.40;;;;;;;9.07;95.95;98631.77;273020;1269;23136;-79
2023/11/13 10:45:27;;;;;;;11.70;6.20;;;;;;;8.95;96.01;98628.81;273169;1269;22276;-80
2023/11/13 10:51:30;;;;;;;10.80;5.10;;;;;;;8.89;96.07;98626.40;272936;1269;22432;-80
2023/11/13 10:57:32;;;;;;;10.80;4.80;;;;;;;8.83;95.46;98620.95;272849;1269;22416;-80
2023/11/13 11:04:04;;;;;;;11.20;5.10;;;;;;;8.82;95.43;98625.08;272952;1269;22193;-83
2023/11/13 11:10:07;;;;;;;6.60;4.00;;;;;;;8.78;95.04;98629.48;273155;1269;23777;-80
2023/11/13 11:16:29;;;;;;;23.60;11.30;;;;;;;8.70;94.13;98627.58;273242;1269;22280;-79
2023/11/13 11:22:42;;;;;;;12.20;5.10;;;;;;;8.70;94.13;98624.14;272976;1269;22324;-81
2023/11/13 11:28:47;;;;;;;11.00;4.30;;;;;;;8.73;93.83;98621.15;272959;1269;22432;-81
2023/11/13 11:35:02;;;;;;;10.90;5.00;;;;;;;8.75;93.64;98613.21;273023;1269;22232;-80
2023/11/13 11:41:56;;;;;;;9.40;5.10;;;;;;;8.63;92.51;98611.05;273212;1270;22195;-80
2023/11/13 11:47:59;;;;;;;7.30;4.40;;;;;;;8.56;92.36;98604.79;272771;1270;22188;-80
2023/11/13 11:54:36;;;;;;;10.40;4.60;;;;;;;8.46;92.06;98603.02;273182;1272;22166;-80
2023/11/13 12:00:38;;;;;;;6.50;3.20;;;;;;;8.37;91.53;98600.73;273286;1272;22303;-80
2023/11/13 12:06:40;;;;;;;6.40;3.50;;;;;;;8.37;91.35;98600.56;272462;1270;22471;-79
2023/11/13 12:13:25;;;;;;;8.90;3.80;;;;;;;8.31;90.49;98600.79;272811;1272;23324;-79
2023/11/13 12:19:28;;;;;;;9.90;4.50;;;;;;;8.19;89.78;98598.03;272947;1270;22968;-80
2023/11/13 12:25:31;;;;;;;5.80;3.20;;;;;;;8.13;89.68;98596.39;272527;1272;22302;-81
2023/11/13 12:31:53;;;;;;;7.60;2.60;;;;;;;8.19;89.91;98587.27;272794;1270;22389;-81
2023/11/13 12:37:55;;;;;;;5.20;2.60;;;;;;;8.19;89.05;98581.83;272966;1269;22375;-80
2023/11/13 12:43:57;;;;;;;3.50;2.20;;;;;;;8.10;87.84;98581.86;272966;1269;24002;-80
2023/11/13 12:49:58;;;;;;;7.60;2.40;;;;;;;8.06;87.42;98582.03;272939;1269;22243;-80
2023/11/13 12:56:05;;;;;;;6.20;2.30;;;;;;;8.06;87.51;98581.41;272933;1269;22512;-79
2023/11/13 13:02:11;;;;;;;4.00;1.80;;;;;;;8.12;87.76;98580.56;273690;1270;22276;-80
2023/11/13 13:08:13;;;;;;;7.50;2.60;;;;;;;8.07;86.17;98574.27;273601;1269;22258;-80
2023/11/13 13:14:28;;;;;;;;;;;;;;;;;;;;;
2023/11/13 13:21:02;;;;;;;5.20;2.30;;;;;;;8.03;85.41;98554.11;273142;1269;23239;-80
2023/11/13 13:27:05;;;;;;;9.20;4.60;;;;;;;7.92;84.27;98544.22;273496;1269;23525;-79
2023/11/13 13:33:13;;;;;;;10.50;4.70;;;;;;;7.75;84.52;98542.18;273482;1272;22222;-79
2023/11/13 13:39:18;;;;;;;8.10;4.30;;;;;;;7.64;84.85;98538.90;273219;1269;22314;-80
2023/11/13 13:45:25;;;;;;;11.10;4.70;;;;;;;7.54;86.24;98529.65;273018;1254;22905;-81
2023/11/13 13:51:27;;;;;;;5.00;2.80;;;;;;;7.50;86.11;98526.31;273087;1269;22206;-79
2023/11/13 13:57:39;;;;;;;5.80;2.70;;;;;;;7.52;86.03;98526.48;273379;1264;22198;-79
2023/11/13 14:04:00;;;;;;;6.90;2.40;;;;;;;7.51;84.85;98523.76;273486;1272;22271;-79
2023/11/13 14:10:02;;;;;;;8.20;2.40;;;;;;;7.55;85.42;98521.80;273278;1270;22286;-80
2023/11/13 14:16:24;;;;;;;4.80;2.30;;;;;;;7.59;84.63;98518.27;273078;1274;23093;-79
2023/11/13 14:23:10;;;;;;;5.60;2.90;;;;;;;7.51;84.65;98523.36;273469;1273;23191;-79
2023/11/13 14:29:28;;;;;;;7.50;3.40;;;;;;;7.42;84.02;98531.31;272842;1269;23568;-81
2023/11/13 14:35:32;;;;;;;13.30;3.60;;;;;;;7.33;84.26;98525.17;272987;1269;22275;-80
2023/11/13 14:42:12;;;;;;;9.40;3.80;;;;;;;7.19;83.90;98515.30;272762;1269;23639;-80
2023/11/13 14:48:14;;;;;;;7.50;3.90;;;;;;;7.10;83.35;98504.88;272775;1269;243485;-81
2023/11/13 14:54:33;;;;;;;10.50;5.20;;;;;;;6.92;83.52;98496.23;273406;1271;22201;-79
2023/11/13 15:01:11;;;;;;;10.10;4.60;;;;;;;6.73;83.55;98499.26;273624;1270;22178;-79
2023/11/13 15:07:53;;;;;;;16.80;9.40;;;;;;;6.46;83.83;98504.02;273531;1269;22181;-79
2023/11/13 15:13:56;;;;;;;23.00;10.40;;;;;;;6.16;84.43;98509.02;272744;1269;23672;-79
2023/11/13 15:20:41;;;;;;;39.30;14.50;;;;;;;5.90;84.57;98505.13;273076;1269;22233;-79
2023/11/13 15:26:47;;;;;;;18.20;7.10;;;;;;;5.60;85.24;98502.79;272979;1269;22190;-79
2023/11/13 15:32:49;;;;;;;47.80;16.10;;;;;;;5.28;85.32;98490.67;273561;1270;23416;-80
2023/11/13 15:38:55;;;;;;;76.60;27.90;;;;;;;4.97;85.49;98484.38;273075;1269;22374;-80
2023/11/13 15:45:01;;;;;;;104.00;43.20;;;;;;;4.73;85.95;98476.35;272743;1269;22421;-79
2023/11/13 15:51:03;;;;;;;93.00;37.50;;;;;;;4.52;85.97;98463.34;272636;1269;22388;-80
2023/11/13 15:57:09;;;;;;;94.30;36.80;;;;;;;4.35;86.46;98457.92;273303;1272;22305;-79
2023/11/13 16:03:30;;;;;;;66.20;29.10;;;;;;;4.24;86.82;98455.94;272940;1270;22420;-80
2023/11/13 16:09:32;;;;;;;51.60;23.60;;;;;;;4.11;87.36;98445.88;273040;1269;22202;-80
2023/11/13 16:15:54;;;;;;;95.00;38.70;;;;;;;3.91;87.30;98433.57;272960;1272;22265;-79
2023/11/13 16:21:57;;;;;;;61.50;26.90;;;;;;;3.73;88.30;98428.48;272998;1269;22492;-82
2023/11/13 16:28:04;;;;;;;78.60;32.00;;;;;;;3.66;89.25;98426.83;272935;1269;22198;-79
2023/11/13 16:34:27;;;;;;;45.40;22.60;;;;;;;3.60;89.38;98426.16;272607;1269;22198;-80
2023/11/13 16:40:54;;;;;;;42.50;21.40;;;;;;;3.42;89.38;98411.71;272801;1269;22154;-80
2023/11/13 16:46:56;;;;;;;38.40;18.40;;;;;;;3.23;89.86;98412.70;272886;1269;22387;-80
2023/11/13 16:53:16;;;;;;;35.40;17.20;;;;;;;3.07;90.72;98412.44;272960;1269;22837;-79
2023/11/13 16:59:55;;;;;;;39.10;17.60;;;;;;;2.94;91.29;98419.83;273466;1273;22181;-79
2023/11/13 17:06:12;;;;;;;37.60;20.20;;;;;;;2.76;91.75;98420.98;273513;1272;22383;-80
2023/11/13 17:12:29;;;;;;;42.10;21.30;;;;;;;2.67;92.61;98420.36;273228;1269;22364;-79
2023/11/13 17:18:48;;;;;;;48.50;23.00;;;;;;;2.51;92.47;98408.24;273404;1269;22176;-79
2023/11/13 17:24:50;;;;;;;46.00;23.40;;;;;;;2.34;92.62;98409.45;272747;1269;23133;-80
2023/11/13 17:31:12;;;;;;;69.20;31.50;;;;;;;2.20;92.86;98411.65;272950;1269;22265;-80
2023/11/13 17:37:14;;;;;;;131.20;50.40;;;;;;;2.07;93.17;98411.66;273051;1269;22473;-79
2023/11/13 17:43:16;;;;;;;116.50;48.90;;;;;;;1.97;93.29;98401.92;272839;1269;22412;-79
2023/11/13 17:49:27;;;;;;;80.70;34.30;;;;;;;1.84;93.34;98389.63;272981;1274;22215;-79
2023/11/13 17:55:49;;;;;;;71.80;32.50;;;;;;;1.71;93.75;98381.95;273147;1269;22216;-79
2023/11/13 18:02:22;;;;;;;84.50;35.90;;;;;;;1.68;94.38;98363.56;272753;1269;22334;-79
2023/11/13 18:08:37;;;;;;;;;;;;;;;1.65;94.56;98340.80;272757;1269;22457;-79
2023/11/13 18:14:39;;;;;;;82.60;33.40;;;;;;;1.57;94.88;98327.48;273432;1267;22693;-78
2023/11/13 18:20:50;;;;;;;78.90;30.90;;;;;;;1.55;96.08;98334.20;273169;1273;22334;-79
2023/11/13 18:26:56;;;;;;;123.50;46.40;;;;;;;1.54;96.31;98328.24;273355;1270;22199;-79
2023/11/13 18:33:18;;;;;;;120.80;46.30;;;;;;;1.53;96.38;98326.34;272857;1270;22386;-79
2023/11/13 18:39:21;;;;;;;116.00;43.40;;;;;;;1.55;97.07;98320.17;272617;1270;22420;-79
2023/11/13 18:45:28;;;;;;;109.80;39.60;;;;;;;1.59;97.76;98299.73;272901;1270;23191;-79
2023/11/13 18:51:54;;;;;;;101.90;40.90;;;;;;;1.63;98.15;98285.46;272579;1263;22402;-79
2023/11/13 18:58:37;;;;;;;95.40;41.10;;;;;;;1.66;98.53;98272.36;272927;1270;22212;-79
2023/11/13 19:05:00;;;;;;;99.20;42.60;;;;;;;1.70;99.02;98259.42;272797;1270;22199;-78
2023/11/13 19:11:05;;;;;;;86.20;39.70;;;;;;;1.74;99.51;98247.83;272835;1264;22221;-79
2023/11/13 19:17:11;;;;;;;88.30;38.10;;;;;;;1.81;99.94;98252.63;272480;1270;24418;-83
2023/11/13 19:23:14;;;;;;;64.00;30.40;;;;;;;1.95;100.00;98250.54;273022;1272;22363;-79
2023/11/13 19:29:21;;;;;;;88.90;40.40;;;;;;;2.11;100.00;98244.58;272414;1270;23275;-79
2023/11/13 19:35:26;;;;;;;104.10;42.70;;;;;;;2.26;100.00;98237.89;272498;1271;22226;-80
2023/11/13 19:41:30;;;;;;;95.10;44.50;;;;;;;2.38;100.00;98230.13;272694;1269;22206;-79
2023/11/13 19:47:52;;;;;;;104.70;48.20;;;;;;;2.44;100.00;98212.45;273030;1273;22181;-79
2023/11/13 19:53:55;;;;;;;100.00;49.00;;;;;;;2.48;100.00;98190.17;273065;1272;22219;-80
2023/11/13 20:00:20;;;;;;;97.60;48.70;;;;;;;2.52;100.00;98171.23;272795;1269;22244;-79
2023/11/13 20:06:53;;;;;;;97.00;46.60;;;;;;;2.54;100.00;98163.08;272830;1269;22143;-79
2023/11/13 20:13:18;;;;;;;107.40;47.40;;;;;;;2.52;100.00;98149.31;272992;1272;22211;-79
2023/11/13 20:19:29;;;;;;;92.70;46.60;;;;;;;2.55;100.00;98140.98;272999;1272;22202;-80
2023/11/13 20:25:51;;;;;;;100.60;47.90;;;;;;;2.60;100.00;98136.48;273139;1271;23392;-79
2023/11/13 20:32:03;;;;;;;106.90;53.40;;;;;;;2.61;100.00;98140.41;272621;1270;22385;-80
2023/11/13 20:38:06;;;;;;;99.20;49.40;;;;;;;2.67;100.00;98121.63;272967;1269;22372;-81
2023/11/13 20:44:08;;;;;;;104.20;50.80;;;;;;;2.71;100.00;98094.80;272877;1269;23393;-79
2023/11/13 20:50:33;;;;;;;106.40;53.90;;;;;;;2.70;100.00;98088.13;273301;1267;22314;-80
2023/11/13 20:56:56;;;;;;;108.20;53.30;;;;;;;2.68;100.00;98079.80;273351;1269;22260;-79
2023/11/13 21:02:58;;;;;;;109.30;53.10;;;;;;;2.66;100.00;98067.77;272587;1269;22361;-80
2023/11/13 21:09:00;;;;;;;104.40;54.80;;;;;;;2.62;100.00;98042.50;273332;1269;22214;-80
2023/11/13 21:15:04;;;;;;;116.10;57.50;;;;;;;2.59;100.00;98035.48;272719;1269;22298;-79
2023/11/13 21:21:25;;;;;;;108.70;55.50;;;;;;;2.67;100.00;98024.36;272557;1269;22489;-80
2023/11/13 21:27:27;;;;;;;115.50;60.30;;;;;;;2.75;100.00;98012.92;272835;1269;23064;-83
2023/11/13 21:33:30;;;;;;;103.60;57.70;;;;;;;2.80;100.00;98022.91;273426;1263;22189;-80
2023/11/13 21:39:53;;;;;;;114.80;61.40;;;;;;;2.85;100.00;98014.23;273300;1269;22315;-80
2023/11/13 21:46:16;;;;;;;116.00;61.30;;;;;;;2.90;100.00;97994.14;272915;1269;22213;-80
2023/11/13 21:52:22;;;;;;;125.50;64.90;;;;;;;2.92;100.00;97978.75;273092;1269;22199;-79
2023/11/13 21:58:49;;;;;;;127.70;68.20;;;;;;;2.93;100.00;97957.75;273667;1270;22208;-79
2023/11/13 22:04:51;;;;;;;123.00;63.70;;;;;;;2.99;100.00;97935.98;273331;1272;23326;-79
2023/11/13 22:10:58;;;;;;;114.80;63.20;;;;;;;3.06;100.00;97921.23;272944;1269;22294;-80
2023/11/13 22:17:00;;;;;;;95.60;54.90;;;;;;;3.11;100.00;97903.59;273244;1269;22223;-80
2023/11/13 22:23:05;;;;;;;92.10;49.10;;;;;;;3.16;100.00;97874.95;273340;1269;22188;-80
2023/11/13 22:29:10;;;;;;;83.00;45.90;;;;;;;3.24;100.00;97855.33;273431;1269;22289;-79
2023/11/13 22:35:12;;;;;;;76.70;46.20;;;;;;;3.31;100.00;97832.05;273060;1269;23120;-79
2023/11/13 22:41:36;;;;;;;83.30;43.70;;;;;;;3.37;100.00;97811.70;273369;1274;22215;-80
2023/11/13 22:48:19;;;;;;;77.10;43.80;;;;;;;3.44;100.00;97783.32;272972;1269;23766;-80
2023/11/13 22:54:21;;;;;;;77.20;44.60;;;;;;;3.45;100.00;97763.47;273065;1269;22202;-80
2023/11/13 23:00:25;;;;;;;82.70;48.40;;;;;;;3.43;100.00;97756.09;272966;1269;22569;-80
2023/11/13 23:06:28;;;;;;;81.20;47.60;;;;;;;3.46;100.00;97739.54;273219;1269;22203;-80
2023/11/13 23:12:31;;;;;;;80.50;44.50;;;;;;;3.51;100.00;97724.16;273119;1270;22223;-80
2023/11/13 23:19:13;;;;;;;88.40;47.10;;;;;;;3.52;100.00;97711.20;273375;1269;23349;-80
2023/11/13 23:26:13;;;;;;;86.30;47.80;;;;;;;3.59;100.00;97699.42;272797;1269;23106;-80
2023/11/13 23:32:36;;;;;;;90.80;49.30;;;;;;;3.68;100.00;97675.14;273062;1269;22377;-80
2023/11/13 23:38:37;;;;;;;93.10;51.70;;;;;;;3.76;100.00;97653.94;273210;1269;22398;-81
2023/11/13 23:44:39;;;;;;;100.10;56.80;;;;;;;3.85;100.00;97641.70;272870;1269;22418;-80
2023/11/13 23:50:42;;;;;;;108.90;61.40;;;;;;;3.92;100.00;97631.60;272798;1269;22322;-80
2023/11/13 23:57:04;;;;;;;135.40;76.00;;;;;;;3.98;100.00;97619.54;273477;1270;22188;-81
